Pagrindinis puslapis
METAR-TAF:

METAR-TAF

Oro uostai :

Nanas, Tailandas

platuma: 18-46N, ilguma: 100-46E, Aukštis: 200 m

Dabartinis oras

Ataskaita buvo paskelbta 10 valandos ir 35 minutes, ne 11:00 UTC
Vėjas 6 kt iš Pietų/Pietryčių
Temperatūra 27°C
Drėgmė 84%
Slėgis 1005 hPa
Matomumas 10 km arba daugiau
Mažai debesys ne aukštis 2500 ft
Išsisklaidę debesys ne aukštis 10000 ft

METAR: VTCN 171100Z 16006KT 9999 FEW025 SCT100 27/24 Q1005 NOSIG

Laikas: 04:35 (21:35 UTC)

Prognozė

Ataskaita buvo paskelbta 4 valandos ir 35 minutes, ne 17:00 UTC
Prognozė galioja nuo 17 metu 18 UTC su 18 metu 18 UTC
Vėjas 5 kt iš Pietų/Pietryčių
Matomumas 10 km arba daugiau
Išsisklaidę debesys ne aukštis 2500 ft
Laikinai
nuo 18 metu 06 UTC su 18 metu 12 UTC
Vėjas 15 kt nuo kintamojo kryptimis su gūsio iki 25 kt
Matomumas: 5000 m
Mažai debesys ne aukštis 2000 ft, Liūtiniai kamuoliniai debesys.
Su prošvaistėmis ne aukštis 2500 ft
perkūnija, lietus

TAF: VTCN 171700Z 1718/1818 16005KT 9999 SCT025 TEMPO 1806/1812 VRB15G25KT 5000 TSRA FEW020CB BKN025

Orai ataskaitas ir orų prognozės (METAR, TAF).

turimą stotys yra geltonos ir raudonos taškus žemėlapyje.

Perkelti pele per norėdami pamatyti stoties vardą.

Tada spustelėkite, norėdami matyti oro stebėjimo ir prognozės.

Norėdami pakeisti žemėlapį: spustelėkite ant žalios mygtukų su juodo kryžiaus žemyn,; žalią mygtuką su brūkšneliu, jei norite nutolinti; arba žalių rodyklių gretimoms žemėlapius.


METAR-TAF: